createdAt,value
2022-11-24T00:01:23.209Z,39.70
2022-11-24T00:03:58.267Z,39.50
2022-11-24T00:06:26.322Z,43.47
2022-11-24T00:08:54.489Z,41.33
2022-11-24T00:11:28.166Z,38.67
2022-11-24T00:13:55.614Z,43.30
2022-11-24T00:16:35.136Z,37.43
2022-11-24T00:19:06.204Z,41.33
2022-11-24T00:21:33.183Z,44.30
2022-11-24T00:24:00.974Z,46.50
2022-11-24T00:26:32.008Z,59.63
2022-11-24T00:29:05.717Z,50.60
2022-11-24T00:31:37.209Z,49.97
2022-11-24T00:34:10.510Z,47.13
2022-11-24T00:36:38.518Z,51.83
2022-11-24T00:39:10.340Z,43.60
2022-11-24T00:41:38.052Z,46.40
2022-11-24T00:44:05.528Z,43.17
2022-11-24T00:46:32.668Z,47.53
2022-11-24T00:49:02.838Z,43.87
2022-11-24T00:51:30.867Z,41.83
2022-11-24T00:53:58.948Z,36.40
2022-11-24T00:56:27.737Z,35.67
2022-11-24T00:58:55.269Z,36.00
2022-11-24T01:01:29.178Z,36.40
2022-11-24T01:03:56.688Z,31.83
2022-11-24T01:06:26.447Z,34.60
2022-11-24T01:08:54.295Z,36.07
2022-11-24T01:11:28.273Z,36.27
2022-11-24T01:13:59.020Z,33.87
2022-11-24T01:16:33.286Z,38.80
2022-11-24T01:19:01.442Z,36.47
2022-11-24T01:21:28.456Z,34.50
2022-11-24T01:23:55.486Z,35.93
2022-11-24T01:26:23.461Z,29.87
2022-11-24T01:28:58.382Z,30.90
2022-11-24T01:31:26.737Z,38.83
2022-11-24T01:33:54.268Z,29.87
2022-11-24T01:36:22.246Z,35.50
2022-11-24T01:38:49.623Z,38.43
2022-11-24T01:41:21.627Z,30.00
2022-11-24T01:43:49.806Z,32.70
2022-11-24T01:46:46.461Z,32.33
2022-11-24T01:49:23.221Z,33.60
2022-11-24T01:52:20.228Z,36.43
2022-11-24T01:55:00.244Z,33.70
2022-11-24T01:57:37.046Z,37.53
2022-11-24T02:00:10.998Z,30.00
2022-11-24T02:02:38.637Z,32.07
2022-11-24T02:05:25.688Z,32.67
2022-11-24T02:07:56.698Z,30.00
2022-11-24T02:10:23.997Z,31.23
2022-11-24T02:12:55.058Z,34.73
2022-11-24T02:15:22.850Z,29.93
2022-11-24T02:17:49.973Z,35.07
2022-11-24T02:20:18.101Z,33.50
2022-11-24T02:23:24.446Z,33.17
2022-11-24T02:26:28.734Z,34.13
2022-11-24T02:28:56.028Z,27.03
2022-11-24T02:31:23.076Z,32.60
2022-11-24T02:33:51.219Z,28.13
2022-11-24T02:36:18.349Z,29.47
2022-11-24T02:38:45.408Z,29.47
2022-11-24T02:41:20.011Z,27.73
2022-11-24T02:43:55.760Z,27.30
2022-11-24T02:46:23.540Z,32.23
2022-11-24T02:48:50.686Z,24.77
2022-11-24T02:51:18.104Z,29.70
2022-11-24T02:53:45.678Z,25.53
2022-11-24T02:56:12.927Z,23.37
2022-11-24T02:58:40.056Z,26.93
2022-11-24T03:01:07.303Z,21.97
2022-11-24T03:03:34.365Z,27.07
2022-11-24T03:06:01.368Z,21.00
2022-11-24T03:08:28.386Z,24.73
2022-11-24T03:10:55.531Z,26.20
2022-11-24T03:13:22.555Z,27.27
2022-11-24T03:15:49.689Z,22.27
2022-11-24T03:18:16.778Z,26.60
2022-11-24T03:20:44.324Z,22.07
2022-11-24T03:23:11.459Z,24.97
2022-11-24T03:25:38.553Z,25.10
2022-11-24T03:28:05.805Z,25.50
2022-11-24T03:30:32.839Z,24.93
2022-11-24T03:32:59.940Z,25.80
2022-11-24T03:35:27.046Z,23.60
2022-11-24T03:37:54.062Z,24.43
2022-11-24T03:40:21.121Z,24.30
2022-11-24T03:42:48.137Z,22.13
2022-11-24T03:45:45.641Z,22.63
2022-11-24T03:48:02.198Z,27.20
2022-11-24T03:50:29.345Z,23.70
2022-11-24T03:52:56.403Z,21.67
2022-11-24T03:55:23.388Z,23.67
2022-11-24T03:57:50.414Z,21.10
2022-11-24T04:00:18.027Z,27.20
2022-11-24T04:02:45.087Z,22.60
2022-11-24T04:05:12.219Z,21.73
2022-11-24T04:07:39.326Z,20.87
2022-11-24T04:10:07.451Z,23.53
2022-11-24T04:12:46.502Z,22.43
2022-11-24T04:15:17.883Z,19.33
2022-11-24T04:17:46.551Z,20.50
2022-11-24T04:20:14.255Z,22.70
2022-11-24T04:22:41.658Z,23.27
2022-11-24T04:25:10.321Z,21.63
2022-11-24T04:27:38.709Z,20.67
2022-11-24T04:30:07.573Z,27.30
2022-11-24T04:32:34.797Z,21.37
2022-11-24T04:35:01.840Z,21.93
2022-11-24T04:37:28.863Z,24.17
2022-11-24T04:39:55.864Z,25.27
2022-11-24T04:42:22.887Z,25.10
2022-11-24T04:44:50.328Z,25.03
2022-11-24T04:47:25.615Z,23.80
2022-11-24T04:49:53.856Z,23.87
2022-11-24T04:52:23.080Z,18.97
2022-11-24T04:54:50.360Z,19.53
2022-11-24T04:57:19.536Z,26.27
2022-11-24T04:59:46.727Z,24.97
2022-11-24T05:02:14.139Z,23.90
2022-11-24T05:04:41.356Z,24.30
2022-11-24T05:07:17.987Z,21.37
2022-11-24T05:10:22.110Z,22.20
2022-11-24T05:12:59.674Z,25.77
2022-11-24T05:15:27.184Z,24.17
2022-11-24T05:17:54.358Z,26.50
2022-11-24T05:20:21.596Z,23.73
2022-11-24T05:22:48.624Z,28.67
2022-11-24T05:25:15.922Z,22.60
2022-11-24T05:27:43.259Z,24.37
2022-11-24T05:30:11.534Z,24.93
2022-11-24T05:32:38.516Z,25.90
2022-11-24T05:35:06.186Z,25.27
2022-11-24T05:37:33.145Z,22.83
2022-11-24T05:40:00.112Z,25.80
2022-11-24T05:42:47.089Z,25.27
2022-11-24T05:45:18.940Z,26.43
2022-11-24T05:47:47.063Z,22.97
2022-11-24T05:50:17.190Z,27.57
2022-11-24T05:52:44.496Z,23.10
2022-11-24T05:55:13.425Z,22.50
2022-11-24T05:57:40.788Z,25.53
2022-11-24T06:00:09.428Z,26.90
2022-11-24T06:02:36.516Z,24.97
2022-11-24T06:05:03.715Z,24.77
2022-11-24T06:07:30.751Z,27.13
2022-11-24T06:09:57.716Z,27.53
2022-11-24T06:12:24.657Z,24.87
2022-11-24T06:14:51.793Z,26.37
2022-11-24T06:17:18.778Z,24.87
2022-11-24T06:19:47.931Z,33.53
2022-11-24T06:22:15.023Z,29.47
2022-11-24T06:24:42.028Z,30.07
2022-11-24T06:27:09.025Z,26.60
2022-11-24T06:29:35.950Z,24.50
2022-11-24T06:32:02.937Z,27.30
2022-11-24T06:34:29.954Z,25.47
2022-11-24T06:36:57.191Z,25.27
2022-11-24T06:39:24.126Z,27.70
2022-11-24T06:41:51.616Z,26.67
2022-11-24T06:44:19.157Z,27.70
2022-11-24T06:46:46.298Z,24.77
2022-11-24T06:49:13.291Z,24.40
2022-11-24T06:51:40.268Z,24.67
2022-11-24T06:54:09.029Z,27.70
2022-11-24T06:56:36.647Z,25.30
2022-11-24T06:59:03.709Z,22.30
2022-11-24T07:01:30.824Z,22.07
2022-11-24T07:03:58.852Z,22.97
2022-11-24T07:06:27.013Z,22.40
2022-11-24T07:08:54.012Z,23.20
2022-11-24T07:11:23.773Z,21.73
2022-11-24T07:13:55.081Z,22.43
2022-11-24T07:16:27.399Z,19.80
2022-11-24T07:18:55.599Z,20.63
2022-11-24T07:21:24.629Z,18.17
2022-11-24T07:23:54.361Z,21.23
2022-11-24T07:26:22.505Z,20.30
2022-11-24T07:28:49.773Z,17.57
2022-11-24T07:31:20.247Z,17.57
2022-11-24T07:33:52.472Z,20.70
2022-11-24T07:36:20.314Z,19.70
2022-11-24T07:38:48.077Z,17.97
2022-11-24T07:41:18.148Z,20.63
2022-11-24T07:43:45.163Z,18.27
2022-11-24T07:46:14.746Z,19.30
2022-11-24T07:48:41.713Z,19.73
2022-11-24T07:51:09.749Z,19.17
2022-11-24T07:53:37.686Z,17.87
2022-11-24T07:56:06.336Z,17.57
2022-11-24T07:58:36.088Z,21.20
2022-11-24T08:01:17.949Z,19.07
2022-11-24T08:03:46.329Z,17.87
2022-11-24T08:06:25.450Z,17.77
2022-11-24T08:08:55.220Z,15.60
2022-11-24T08:11:22.691Z,16.30
2022-11-24T08:13:49.732Z,15.87
2022-11-24T08:16:19.841Z,16.77
2022-11-24T08:18:54.990Z,16.03
2022-11-24T08:21:23.605Z,15.47
2022-11-24T08:23:55.196Z,19.60
2022-11-24T08:26:23.017Z,16.90
2022-11-24T08:28:56.045Z,14.60
2022-11-24T08:31:23.215Z,18.93
2022-11-24T08:33:50.233Z,16.07
2022-11-24T08:36:19.339Z,18.03
2022-11-24T08:38:48.954Z,18.90
2022-11-24T08:41:17.603Z,20.07
2022-11-24T08:43:44.936Z,18.30
2022-11-24T08:46:17.253Z,14.97
2022-11-24T08:48:50.141Z,15.67
2022-11-24T08:51:20.836Z,15.43
2022-11-24T08:53:47.756Z,18.87
2022-11-24T08:56:15.230Z,16.20
2022-11-24T08:58:42.353Z,21.17
2022-11-24T09:01:14.651Z,21.70
2022-11-24T09:03:50.051Z,20.47
2022-11-24T09:06:24.909Z,19.67
2022-11-24T09:08:54.579Z,18.57
2022-11-24T09:11:22.321Z,18.60
2022-11-24T09:13:49.622Z,19.90
2022-11-24T09:16:21.818Z,22.40
2022-11-24T09:18:54.691Z,27.23
2022-11-24T09:21:22.625Z,19.43
2022-11-24T09:23:51.913Z,21.90
2022-11-24T09:26:32.246Z,18.60
2022-11-24T09:29:01.173Z,18.13
2022-11-24T09:31:39.233Z,21.17
2022-11-24T09:34:15.153Z,21.07
2022-11-24T09:36:43.022Z,20.47
2022-11-24T09:39:11.396Z,16.90
2022-11-24T09:42:15.894Z,21.80
2022-11-24T09:44:58.204Z,19.90
2022-11-24T09:48:03.615Z,22.27
2022-11-24T09:50:36.400Z,21.60
2022-11-24T09:53:21.494Z,23.73
2022-11-24T09:55:51.957Z,17.80
2022-11-24T09:58:48.541Z,24.10
2022-11-24T10:01:24.489Z,20.37
2022-11-24T10:03:53.380Z,24.00
2022-11-24T10:06:34.770Z,24.40
2022-11-24T10:09:12.980Z,24.60
2022-11-24T10:12:16.371Z,26.10
2022-11-24T10:15:22.527Z,21.30
2022-11-24T10:18:05.099Z,24.83
2022-11-24T10:21:11.919Z,24.23
2022-11-24T10:24:26.033Z,26.30
2022-11-24T10:27:22.039Z,23.77
2022-11-24T10:29:52.877Z,26.87
2022-11-24T10:32:33.489Z,21.27
2022-11-24T10:35:35.180Z,24.27
2022-11-24T10:38:41.191Z,22.53
2022-11-24T10:41:24.227Z,22.43
2022-11-24T10:43:52.788Z,20.93
2022-11-24T10:46:27.210Z,26.50
2022-11-24T10:49:00.898Z,24.40
2022-11-24T10:52:11.011Z,25.67
2022-11-24T10:55:01.456Z,28.37
2022-11-24T10:57:36.385Z,26.43
2022-11-24T11:00:20.946Z,22.70
2022-11-24T11:03:17.505Z,24.27
2022-11-24T11:06:24.421Z,21.07
2022-11-24T11:09:14.412Z,26.53
2022-11-24T11:11:42.967Z,21.80
2022-11-24T11:14:12.918Z,25.53
2022-11-24T11:16:55.776Z,25.27
2022-11-24T11:19:54.104Z,23.53
2022-11-24T11:22:35.400Z,25.07
2022-11-24T11:25:20.038Z,23.40
2022-11-24T11:27:48.355Z,22.77
2022-11-24T11:36:16.454Z,27.13
2022-11-24T11:38:45.349Z,23.50
2022-11-24T11:41:24.324Z,22.53
2022-11-24T11:44:04.654Z,23.50
2022-11-24T11:46:32.708Z,24.73
2022-11-24T11:49:00.023Z,20.87
2022-11-24T11:52:09.039Z,23.63
2022-11-24T11:55:08.503Z,27.80
2022-11-24T11:58:00.373Z,22.37
2022-11-24T12:00:28.030Z,23.70
2022-11-24T12:03:19.645Z,24.47
2022-11-24T12:06:26.913Z,24.67
2022-11-24T12:09:29.307Z,29.10
2022-11-24T12:12:36.663Z,25.40
2022-11-24T12:15:18.176Z,24.33
2022-11-24T12:18:55.380Z,25.10
2022-11-24T12:21:38.913Z,23.47
2022-11-24T12:24:40.452Z,24.27
2022-11-24T12:27:51.381Z,24.33
2022-11-24T12:30:21.901Z,23.60
2022-11-24T12:33:50.575Z,23.87
2022-11-24T12:36:53.755Z,23.60
2022-11-24T12:39:28.460Z,25.20
2022-11-24T12:42:30.306Z,26.63
2022-11-24T12:45:08.908Z,28.77
2022-11-24T12:48:39.372Z,24.97
2022-11-24T12:51:16.923Z,23.83
2022-11-24T12:53:47.658Z,23.93
2022-11-24T12:56:17.452Z,26.50
2022-11-24T12:59:08.908Z,24.27
2022-11-24T13:01:47.572Z,25.43
2022-11-24T13:04:50.398Z,32.30
2022-11-24T13:07:45.017Z,27.73
2022-11-24T13:10:53.539Z,28.20
2022-11-24T13:13:15.655Z,28.87
2022-11-24T13:16:34.703Z,27.57
2022-11-24T13:18:58.331Z,26.17
2022-11-24T13:21:35.830Z,34.13
2022-11-24T13:24:30.739Z,23.97
2022-11-24T13:27:16.214Z,25.07
2022-11-24T13:29:51.259Z,32.63
2022-11-24T13:32:21.253Z,26.23
2022-11-24T13:34:54.884Z,25.30
2022-11-24T13:37:34.857Z,25.53
2022-11-24T13:40:11.764Z,28.60
2022-11-24T13:43:01.419Z,29.30
2022-11-24T13:45:41.042Z,26.80
2022-11-24T13:48:20.795Z,28.57
2022-11-24T13:50:51.076Z,24.77
2022-11-24T13:53:43.970Z,30.73
2022-11-24T13:56:14.066Z,29.07
2022-11-24T13:58:53.765Z,26.30
2022-11-24T14:01:35.961Z,26.80
2022-11-24T14:04:30.153Z,29.10
2022-11-24T14:07:08.788Z,28.03
2022-11-24T14:09:45.932Z,24.57
2022-11-24T14:12:22.941Z,28.17
2022-11-24T14:14:52.975Z,26.17
2022-11-24T14:17:24.604Z,26.00
2022-11-24T14:19:54.594Z,23.03
2022-11-24T14:22:23.435Z,26.53
2022-11-24T14:25:02.193Z,24.27
2022-11-24T14:27:36.978Z,26.27
2022-11-24T14:30:25.474Z,31.60
2022-11-24T14:33:01.028Z,23.63
2022-11-24T14:35:34.728Z,23.40
2022-11-24T14:38:04.917Z,24.63
2022-11-24T14:40:55.811Z,29.30
2022-11-24T14:43:33.398Z,26.13
2022-11-24T14:46:18.058Z,28.23
2022-11-24T14:48:53.028Z,29.23
2022-11-24T14:51:30.604Z,29.23
2022-11-24T14:54:07.113Z,28.53
2022-11-24T14:56:39.052Z,28.37
2022-11-24T14:59:24.246Z,35.63
2022-11-24T15:01:51.382Z,31.53
2022-11-24T15:04:46.699Z,32.80
2022-11-24T15:07:29.590Z,30.20
2022-11-24T15:10:02.580Z,33.23
2022-11-24T15:12:48.112Z,29.90
2022-11-24T15:15:15.173Z,31.33
2022-11-24T15:17:58.914Z,33.30
2022-11-24T15:20:36.170Z,31.10
2022-11-24T15:23:30.993Z,33.20
2022-11-24T15:26:01.895Z,32.67
2022-11-24T15:28:31.296Z,34.00
2022-11-24T15:31:09.888Z,32.53
2022-11-24T15:33:37.116Z,38.43
2022-11-24T15:36:04.786Z,33.10
2022-11-24T15:38:32.089Z,33.37
2022-11-24T15:41:01.227Z,35.33
2022-11-24T15:43:38.741Z,33.50
2022-11-24T15:46:08.247Z,37.37
2022-11-24T15:48:35.386Z,34.97
2022-11-24T15:51:08.049Z,32.40
2022-11-24T15:53:42.977Z,36.17
2022-11-24T15:56:19.382Z,36.37
2022-11-24T15:58:46.356Z,38.60
2022-11-24T16:01:13.454Z,34.43
2022-11-24T16:03:48.871Z,34.77
2022-11-24T16:06:24.784Z,35.73
2022-11-24T16:08:54.003Z,43.07
2022-11-24T16:11:21.964Z,36.50
2022-11-24T16:13:52.840Z,39.87
2022-11-24T16:16:23.044Z,37.63
2022-11-24T16:18:50.637Z,40.73
2022-11-24T16:21:17.736Z,39.57
2022-11-24T16:23:45.631Z,49.53
2022-11-24T16:26:12.554Z,41.43
2022-11-24T16:28:39.451Z,40.33
2022-11-24T16:31:06.429Z,43.53
2022-11-24T16:33:33.450Z,45.13
2022-11-24T16:36:00.365Z,44.60
2022-11-24T16:38:27.282Z,46.20
2022-11-24T16:40:56.411Z,45.47
2022-11-24T16:43:24.688Z,44.93
2022-11-24T16:46:22.890Z,49.23
2022-11-24T16:48:53.738Z,43.27
2022-11-24T16:51:22.841Z,40.67
2022-11-24T16:53:58.714Z,44.27
2022-11-24T16:56:29.597Z,48.67
2022-11-24T16:58:56.823Z,50.00
2022-11-24T17:01:24.141Z,52.57
2022-11-24T17:03:51.365Z,51.10
2022-11-24T17:06:19.126Z,47.17
2022-11-24T17:08:47.471Z,48.73
2022-11-24T17:11:20.750Z,54.70
2022-11-24T17:13:49.217Z,49.60
2022-11-24T17:16:19.849Z,58.73
2022-11-24T17:18:47.354Z,54.50
2022-11-24T17:21:18.176Z,50.50
2022-11-24T17:23:45.518Z,55.23
2022-11-24T17:26:17.782Z,56.43
2022-11-24T17:28:45.190Z,54.17
2022-11-24T17:31:37.194Z,58.80
2022-11-24T17:34:05.754Z,56.00
2022-11-24T17:36:34.729Z,55.80
2022-11-24T17:39:07.137Z,52.80
2022-11-24T17:41:34.544Z,53.87
2022-11-24T17:44:01.715Z,62.00
2022-11-24T17:46:30.258Z,67.87
2022-11-24T17:48:57.823Z,67.83
2022-11-24T17:51:26.677Z,67.80
2022-11-24T17:53:55.436Z,69.97
2022-11-24T17:56:27.866Z,77.47
2022-11-24T17:58:57.409Z,73.60
2022-11-24T18:01:26.134Z,70.90
2022-11-24T18:03:54.281Z,66.17
2022-11-24T18:06:25.096Z,73.13
2022-11-24T18:08:54.074Z,76.40
2022-11-24T18:11:30.470Z,70.87
2022-11-24T18:14:01.943Z,71.40
2022-11-24T18:16:34.367Z,68.33
2022-11-24T18:19:08.781Z,70.33
2022-11-24T18:21:41.051Z,64.83
2022-11-24T18:24:10.340Z,54.63
2022-11-24T18:26:38.859Z,63.27
2022-11-24T18:29:05.889Z,63.83
2022-11-24T18:31:35.508Z,61.50
2022-11-24T18:34:05.265Z,58.50
2022-11-24T18:36:33.346Z,62.60
2022-11-24T18:39:06.562Z,67.53
2022-11-24T18:41:33.926Z,58.93
2022-11-24T18:44:08.014Z,60.87
2022-11-24T18:46:35.725Z,61.80
2022-11-24T18:49:03.299Z,62.13
2022-11-24T18:51:30.415Z,63.33
2022-11-24T18:54:02.195Z,61.00
2022-11-24T18:56:29.183Z,59.47
2022-11-24T18:58:57.032Z,58.83
2022-11-24T19:01:27.841Z,59.20
2022-11-24T19:03:58.645Z,72.30
2022-11-24T19:06:35.742Z,58.07
2022-11-24T19:09:15.656Z,57.67
2022-11-24T19:11:45.383Z,57.73
2022-11-24T19:14:18.412Z,58.03
2022-11-24T19:16:48.016Z,61.10
2022-11-24T19:19:17.035Z,56.23
2022-11-24T19:21:44.715Z,57.67
2022-11-24T19:24:13.232Z,58.73
2022-11-24T19:26:40.616Z,60.80
2022-11-24T19:29:08.559Z,59.20
2022-11-24T19:31:36.139Z,54.37
2022-11-24T19:34:05.347Z,64.53
2022-11-24T19:36:32.707Z,68.37
2022-11-24T19:39:00.065Z,71.73
2022-11-24T19:41:30.093Z,70.70
2022-11-24T19:43:58.490Z,67.83
2022-11-24T19:46:28.009Z,72.50
2022-11-24T19:48:59.507Z,72.83
2022-11-24T19:51:30.937Z,67.50
2022-11-24T19:53:58.432Z,65.53
2022-11-24T19:56:28.203Z,72.17
2022-11-24T19:58:56.459Z,81.97
2022-11-24T20:01:33.688Z,72.27
2022-11-24T20:04:12.555Z,73.20
2022-11-24T20:06:42.799Z,79.07
2022-11-24T20:09:12.724Z,70.97
2022-11-24T20:11:40.292Z,74.30
2022-11-24T20:14:09.730Z,75.93
2022-11-24T20:16:36.862Z,79.07
2022-11-24T20:19:07.860Z,70.40
2022-11-24T20:21:37.287Z,79.80
2022-11-24T20:24:07.906Z,83.20
2022-11-24T20:26:38.622Z,71.33
2022-11-24T20:29:06.432Z,69.90
2022-11-24T20:31:38.157Z,85.67
2022-11-24T20:34:07.153Z,69.53
2022-11-24T20:36:36.713Z,68.20
2022-11-24T20:39:09.511Z,69.47
2022-11-24T20:41:39.641Z,77.00
2022-11-24T20:44:11.308Z,68.30
2022-11-24T20:46:40.180Z,62.97
2022-11-24T20:49:10.396Z,64.43
2022-11-24T20:51:39.819Z,67.80
2022-11-24T20:54:09.027Z,68.60
2022-11-24T20:56:42.195Z,65.00
2022-11-24T20:59:22.645Z,67.37
2022-11-24T21:01:51.301Z,53.57
2022-11-24T21:04:22.586Z,58.00
2022-11-24T21:06:50.249Z,50.77
2022-11-24T21:09:18.273Z,60.90
2022-11-24T21:11:45.363Z,61.60
2022-11-24T21:14:12.946Z,49.40
2022-11-24T21:16:42.109Z,53.03
2022-11-24T21:19:14.812Z,55.93
2022-11-24T21:21:43.087Z,52.93
2022-11-24T21:24:16.403Z,56.67
2022-11-24T21:26:47.503Z,52.83
2022-11-24T21:29:17.323Z,52.23
2022-11-24T21:31:44.351Z,54.70
2022-11-24T21:34:16.064Z,46.70
2022-11-24T21:36:45.150Z,55.37
2022-11-24T21:39:14.792Z,58.50
2022-11-24T21:41:42.755Z,59.77
2022-11-24T21:44:12.902Z,59.37
2022-11-24T21:46:45.107Z,62.47
2022-11-24T21:49:16.457Z,63.17
2022-11-24T21:51:43.334Z,61.20
2022-11-24T21:54:10.264Z,65.53
2022-11-24T21:56:37.251Z,61.63
2022-11-24T21:59:04.210Z,55.13
2022-11-24T22:01:31.148Z,70.60
2022-11-24T22:03:58.406Z,69.33
2022-11-24T22:06:25.357Z,67.77
2022-11-24T22:08:52.513Z,82.93
2022-11-24T22:11:25.099Z,72.80
2022-11-24T22:13:52.649Z,72.60
2022-11-24T22:16:23.319Z,69.07
2022-11-24T22:18:51.052Z,68.17
2022-11-24T22:21:24.309Z,81.67
2022-11-24T22:23:52.751Z,66.73
2022-11-24T22:26:22.434Z,69.47
2022-11-24T22:28:50.126Z,80.87
2022-11-24T22:31:26.882Z,80.90
2022-11-24T22:33:55.926Z,74.00
2022-11-24T22:36:26.161Z,81.47
2022-11-24T22:38:59.211Z,80.50
2022-11-24T22:41:26.426Z,73.27
2022-11-24T22:43:54.232Z,88.27
2022-11-24T22:46:24.689Z,76.07
2022-11-24T22:48:53.021Z,71.63
2022-11-24T22:51:24.087Z,74.13
2022-11-24T22:53:55.463Z,72.63
2022-11-24T22:56:23.052Z,73.80
2022-11-24T22:58:50.680Z,67.63
2022-11-24T23:01:23.163Z,67.70
2022-11-24T23:03:51.153Z,73.50
2022-11-24T23:06:21.432Z,65.57
2022-11-24T23:08:49.619Z,77.40
2022-11-24T23:11:25.857Z,76.33
2022-11-24T23:14:00.327Z,70.53
2022-11-24T23:16:28.894Z,79.03
2022-11-24T23:18:56.402Z,75.43
2022-11-24T23:21:36.489Z,71.27
2022-11-24T23:24:04.944Z,75.37
2022-11-24T23:26:39.359Z,72.77
2022-11-24T23:29:06.904Z,64.47
2022-11-24T23:31:34.461Z,77.37
2022-11-24T23:34:03.877Z,74.63
2022-11-24T23:36:32.327Z,74.70
2022-11-24T23:39:14.413Z,73.13
2022-11-24T23:41:41.587Z,74.90
2022-11-24T23:44:09.081Z,74.80
2022-11-24T23:46:36.244Z,86.47
2022-11-24T23:49:03.313Z,80.27
2022-11-24T23:51:32.789Z,69.57
2022-11-24T23:54:00.625Z,68.60
2022-11-24T23:56:32.557Z,76.30
2022-11-24T23:59:04.546Z,80.33
